createdAt,value
2019-02-15T00:00:02.280Z,101956.05
2019-02-15T00:00:42.681Z,101957.77
2019-02-15T00:01:28.617Z,101953.97
2019-02-15T00:02:02.970Z,101954.66
2019-02-15T00:02:37.331Z,101951.41
2019-02-15T00:03:11.810Z,101952.66
2019-02-15T00:03:46.295Z,101946.50
2019-02-15T00:04:20.959Z,101952.03
2019-02-15T00:04:55.292Z,101952.13
2019-02-15T00:05:29.620Z,101950.67
2019-02-15T00:06:04.009Z,101952.63
2019-02-15T00:06:38.334Z,101949.44
2019-02-15T00:07:12.715Z,101951.77
2019-02-15T00:07:47.251Z,101945.16
2019-02-15T00:08:21.733Z,101948.54
2019-02-15T00:08:56.105Z,101947.27
2019-02-15T00:09:30.464Z,101942.85
2019-02-15T00:10:04.838Z,101944.77
2019-02-15T00:10:39.175Z,101944.98
2019-02-15T00:11:13.679Z,101943.84
2019-02-15T00:11:48.320Z,101947.50
2019-02-15T00:12:23.540Z,101945.11
2019-02-15T00:12:57.881Z,101941.05
2019-02-15T00:13:32.296Z,101944.28
2019-02-15T00:14:06.627Z,101940.58
2019-02-15T00:14:47.641Z,101943.52
2019-02-15T00:15:22.298Z,101942.13
2019-02-15T00:15:56.645Z,101939.05
2019-02-15T00:16:31.311Z,101945.22
2019-02-15T00:17:05.691Z,101940.44
2019-02-15T00:18:10.982Z,101942.77
2019-02-15T00:19:22.279Z,101943.03
2019-02-15T00:19:57.206Z,101941.02
2019-02-15T00:20:35.508Z,101941.65
2019-02-15T00:21:21.663Z,101936.88
2019-02-15T00:21:56.326Z,101941.57
2019-02-15T00:22:30.669Z,101939.99
2019-02-15T00:23:05.001Z,101939.02
2019-02-15T00:23:39.589Z,101940.56
2019-02-15T00:24:14.211Z,101942.37
2019-02-15T00:24:48.594Z,101941.05
2019-02-15T00:25:23.224Z,101938.98
2019-02-15T00:25:57.566Z,101943.34
2019-02-15T00:26:31.928Z,101943.27
2019-02-15T00:27:06.279Z,101938.08
2019-02-15T00:27:40.872Z,101945.19
2019-02-15T00:28:15.508Z,101947.56
2019-02-15T00:28:50.253Z,101940.19
2019-02-15T00:29:24.592Z,101938.02
2019-02-15T00:29:58.931Z,101939.98
2019-02-15T00:30:33.293Z,101941.95
2019-02-15T00:31:08.953Z,101943.12
2019-02-15T00:31:43.362Z,101942.11
2019-02-15T00:32:18.181Z,101949.70
2019-02-15T00:32:52.544Z,101938.08
2019-02-15T00:33:27.050Z,101936.31
2019-02-15T00:34:01.401Z,101944.84
2019-02-15T00:34:36.007Z,101941.28
2019-02-15T00:35:10.386Z,101942.86
2019-02-15T00:35:44.956Z,101934.02
2019-02-15T00:36:19.483Z,101943.08
2019-02-15T00:36:54.689Z,101935.63
2019-02-15T00:37:29.339Z,101937.28
2019-02-15T00:38:03.931Z,101932.96
2019-02-15T00:38:38.288Z,101934.56
2019-02-15T00:39:12.680Z,101935.25
2019-02-15T00:39:47.261Z,101934.45
2019-02-15T00:40:22.089Z,101939.30
2019-02-15T00:40:56.707Z,101934.63
2019-02-15T00:41:31.402Z,101931.48
2019-02-15T00:42:06.031Z,101934.31
2019-02-15T00:42:40.472Z,101927.50
2019-02-15T00:43:22.144Z,101927.88
2019-02-15T00:43:51.224Z,101934.62
2019-02-15T00:44:25.591Z,101935.07
2019-02-15T00:44:59.902Z,101932.47
2019-02-15T00:45:39.782Z,101940.22
2019-02-15T00:46:32.389Z,101929.27
2019-02-15T00:47:24.389Z,101936.11
2019-02-15T00:48:02.860Z,101929.61
2019-02-15T00:48:37.507Z,101933.83
2019-02-15T00:49:17.283Z,101929.54
2019-02-15T00:50:19.948Z,101933.00
2019-02-15T00:51:03.639Z,101927.92
2019-02-15T00:51:52.941Z,101927.38
2019-02-15T00:52:45.575Z,101930.66
2019-02-15T00:53:39.816Z,101926.65
2019-02-15T00:54:25.543Z,101922.59
2019-02-15T00:55:17.469Z,101925.81
2019-02-15T00:56:01.400Z,101919.97
2019-02-15T00:56:42.332Z,101922.36
2019-02-15T00:57:34.097Z,101924.53
2019-02-15T00:58:24.146Z,101913.67
2019-02-15T00:59:17.450Z,101921.53
2019-02-15T01:00:10.794Z,101914.40
2019-02-15T01:01:19.307Z,101912.67
2019-02-15T01:02:30.910Z,101918.76
2019-02-15T01:03:27.547Z,101925.64
2019-02-15T01:04:13.638Z,101912.32
2019-02-15T01:05:21.945Z,101915.86
2019-02-15T01:06:08.768Z,101925.98
2019-02-15T01:06:53.651Z,101915.78
2019-02-15T01:08:04.835Z,101920.20
2019-02-15T01:08:54.942Z,101914.44
2019-02-15T01:09:40.960Z,101912.98
2019-02-15T01:10:46.225Z,101918.55
2019-02-15T01:11:42.823Z,101913.71
2019-02-15T01:12:30.410Z,101912.67
2019-02-15T01:13:30.963Z,101911.73
2019-02-15T01:13:59.910Z,101907.14
2019-02-15T01:14:34.353Z,101908.87
2019-02-15T01:15:08.977Z,101911.08
2019-02-15T01:15:43.358Z,101893.75
2019-02-15T01:16:17.986Z,101908.73
2019-02-15T01:16:52.638Z,101900.73
2019-02-15T01:17:26.988Z,101898.45
2019-02-15T01:18:01.760Z,101908.17
2019-02-15T01:18:36.373Z,101904.17
2019-02-15T01:19:10.711Z,101908.08
2019-02-15T01:19:45.089Z,101907.55
2019-02-15T01:20:19.738Z,101918.44
2019-02-15T01:20:54.103Z,101912.05
2019-02-15T01:21:28.699Z,101909.21
2019-02-15T01:22:03.329Z,101905.14
2019-02-15T01:22:37.671Z,101911.16
2019-02-15T01:23:12.275Z,101909.00
2019-02-15T01:23:46.634Z,101905.20
2019-02-15T01:24:21.260Z,101915.34
2019-02-15T01:24:56.194Z,101911.81
2019-02-15T01:25:36.380Z,101913.64
2019-02-15T01:26:15.525Z,101909.45
2019-02-15T01:27:02.454Z,101902.89
2019-02-15T01:27:46.084Z,101905.00
2019-02-15T01:28:42.343Z,101901.02
2019-02-15T01:29:41.777Z,101907.41
2019-02-15T01:30:35.069Z,101910.42
2019-02-15T01:31:31.778Z,101899.90
2019-02-15T01:32:23.821Z,101905.88
2019-02-15T01:33:16.536Z,101910.58
2019-02-15T01:34:08.372Z,101906.44
2019-02-15T01:34:55.726Z,101908.17
2019-02-15T01:35:47.843Z,101900.34
2019-02-15T01:36:47.130Z,101902.83
2019-02-15T01:37:40.501Z,101895.39
2019-02-15T01:38:34.143Z,101897.86
2019-02-15T01:39:30.546Z,101904.30
2019-02-15T01:40:14.161Z,101900.01
2019-02-15T01:41:13.395Z,101894.71
2019-02-15T01:41:54.145Z,101896.63
2019-02-15T01:43:02.650Z,101898.47
2019-02-15T01:43:43.663Z,101899.53
2019-02-15T01:44:24.674Z,101897.23
2019-02-15T01:45:04.739Z,101893.32
2019-02-15T01:45:45.109Z,101897.45
2019-02-15T01:46:38.436Z,101896.58
2019-02-15T01:47:16.911Z,101898.69
2019-02-15T01:47:51.914Z,101899.47
2019-02-15T01:48:26.200Z,101894.73
2019-02-15T01:49:00.525Z,101897.74
2019-02-15T01:49:35.128Z,101899.39
2019-02-15T01:50:09.479Z,101896.84
2019-02-15T01:50:43.943Z,101890.82
2019-02-15T01:51:18.597Z,101890.78
2019-02-15T01:51:53.322Z,101891.72
2019-02-15T01:52:27.788Z,101891.73
2019-02-15T01:53:02.635Z,101891.77
2019-02-15T01:53:37.286Z,101888.50
2019-02-15T01:54:12.007Z,101895.58
2019-02-15T01:54:46.902Z,101895.20
2019-02-15T01:55:21.856Z,101893.73
2019-02-15T01:55:56.189Z,101893.02
2019-02-15T01:56:30.507Z,101895.91
2019-02-15T01:57:05.148Z,101890.34
2019-02-15T01:57:39.506Z,101898.43
2019-02-15T01:58:14.182Z,101891.63
2019-02-15T01:58:48.912Z,101893.28
2019-02-15T01:59:23.279Z,101886.77
2019-02-15T01:59:57.615Z,101891.02
2019-02-15T02:00:33.835Z,101886.77
2019-02-15T02:01:08.183Z,101883.23
2019-02-15T02:01:42.527Z,101890.52
2019-02-15T02:02:17.014Z,101886.66
2019-02-15T02:02:51.687Z,101893.45
2019-02-15T02:03:26.278Z,101890.03
2019-02-15T02:04:00.630Z,101885.30
2019-02-15T02:04:35.549Z,101890.90
2019-02-15T02:05:10.320Z,101883.65
2019-02-15T02:05:45.032Z,101885.34
2019-02-15T02:06:19.458Z,101887.89
2019-02-15T02:06:53.893Z,101889.62
2019-02-15T02:07:28.267Z,101888.31
2019-02-15T02:08:03.152Z,101891.73
2019-02-15T02:08:37.557Z,101889.91
2019-02-15T02:09:12.603Z,101883.44
2019-02-15T02:09:47.244Z,101888.55
2019-02-15T02:10:22.051Z,101882.09
2019-02-15T02:10:56.345Z,101883.03
2019-02-15T02:11:30.672Z,101886.87
2019-02-15T02:12:05.707Z,101882.20
2019-02-15T02:12:40.263Z,101879.20
2019-02-15T02:13:14.690Z,101876.52
2019-02-15T02:13:49.998Z,101880.81
2019-02-15T02:14:24.474Z,101876.15
2019-02-15T02:14:58.826Z,101885.22
2019-02-15T02:15:33.202Z,101875.37
2019-02-15T02:16:07.870Z,101877.50
2019-02-15T02:16:42.478Z,101877.42
2019-02-15T02:17:16.904Z,101879.12
2019-02-15T02:17:51.442Z,101877.67
2019-02-15T02:18:26.371Z,101875.20
2019-02-15T02:19:00.783Z,101880.11
2019-02-15T02:19:35.132Z,101879.57
2019-02-15T02:20:10.337Z,101874.95
2019-02-15T02:20:45.607Z,101878.38
2019-02-15T02:21:20.029Z,101875.70
2019-02-15T02:21:54.630Z,101870.95
2019-02-15T02:22:29.090Z,101868.77
2019-02-15T02:23:03.414Z,101876.44
2019-02-15T02:23:37.837Z,101876.48
2019-02-15T02:24:12.255Z,101875.13
2019-02-15T02:24:47.589Z,101871.66
2019-02-15T02:25:22.279Z,101873.92
2019-02-15T02:25:57.196Z,101874.26
2019-02-15T02:26:31.518Z,101860.95
2019-02-15T02:27:06.131Z,101869.06
2019-02-15T02:27:40.831Z,101870.95
2019-02-15T02:28:15.215Z,101864.11
2019-02-15T02:28:49.592Z,101862.72
2019-02-15T02:29:24.212Z,101865.23
2019-02-15T02:29:58.639Z,101868.61
2019-02-15T02:30:32.977Z,101866.43
2019-02-15T02:31:07.628Z,101871.95
2019-02-15T02:31:41.979Z,101866.18
2019-02-15T02:32:16.389Z,101869.93
2019-02-15T02:32:51.409Z,101869.52
2019-02-15T02:33:26.066Z,101868.28
2019-02-15T02:34:00.649Z,101860.62
2019-02-15T02:34:35.254Z,101864.91
2019-02-15T02:35:09.662Z,101866.14
2019-02-15T02:35:44.086Z,101867.70
2019-02-15T02:36:18.463Z,101868.16
2019-02-15T02:36:54.509Z,101868.84
2019-02-15T02:37:28.828Z,101870.53
2019-02-15T02:38:03.505Z,101866.42
2019-02-15T02:38:38.435Z,101866.27
2019-02-15T02:39:12.788Z,101855.47
2019-02-15T02:39:47.170Z,101866.14
2019-02-15T02:40:22.098Z,101857.00
2019-02-15T02:40:57.008Z,101854.84
2019-02-15T02:41:31.674Z,101854.31
2019-02-15T02:42:06.309Z,101853.12
2019-02-15T02:42:40.666Z,101852.66
2019-02-15T02:43:15.148Z,101851.43
2019-02-15T02:43:59.186Z,101854.59
2019-02-15T02:44:26.166Z,101850.61
2019-02-15T02:45:00.486Z,101853.12
2019-02-15T02:45:34.823Z,101846.52
2019-02-15T02:46:09.195Z,101849.48
2019-02-15T02:46:43.840Z,101847.39
2019-02-15T02:47:18.854Z,101841.70
2019-02-15T02:47:53.235Z,101846.32
2019-02-15T02:48:27.560Z,101848.91
2019-02-15T02:49:01.897Z,101854.64
2019-02-15T02:49:36.249Z,101853.33
2019-02-15T02:50:10.617Z,101846.36
2019-02-15T02:50:45.395Z,101853.62
2019-02-15T02:51:19.834Z,101841.58
2019-02-15T02:51:54.433Z,101847.52
2019-02-15T02:52:29.048Z,101853.03
2019-02-15T02:53:03.752Z,101849.17
2019-02-15T02:53:38.080Z,101849.99
2019-02-15T02:54:12.447Z,101853.41
2019-02-15T02:54:47.148Z,101851.72
2019-02-15T02:55:22.114Z,101848.46
2019-02-15T02:55:56.458Z,101849.90
2019-02-15T02:56:30.809Z,101843.59
2019-02-15T02:57:05.432Z,101847.35
2019-02-15T02:57:39.718Z,101847.23
2019-02-15T02:58:14.163Z,101845.05
2019-02-15T02:58:48.515Z,101851.02
2019-02-15T02:59:22.881Z,101849.78
2019-02-15T02:59:57.485Z,101844.46
2019-02-15T03:00:33.730Z,101847.35
2019-02-15T03:01:07.881Z,101847.34
2019-02-15T03:01:42.563Z,101839.98
2019-02-15T03:02:17.027Z,101851.75
2019-02-15T03:02:51.700Z,101848.22
2019-02-15T03:03:26.079Z,101838.78
2019-02-15T03:04:00.433Z,101841.98
2019-02-15T03:04:34.759Z,101837.25
2019-02-15T03:05:09.096Z,101844.91
2019-02-15T03:06:16.880Z,101836.06
2019-02-15T03:06:51.242Z,101847.52
2019-02-15T03:07:25.673Z,101842.90
2019-02-15T03:08:00.048Z,101840.34
2019-02-15T03:08:34.936Z,101840.64
2019-02-15T03:09:10.172Z,101841.95
2019-02-15T03:09:44.567Z,101846.61
2019-02-15T03:10:20.587Z,101844.06
2019-02-15T03:10:54.919Z,101840.22
2019-02-15T03:11:29.245Z,101843.19
2019-02-15T03:12:03.584Z,101839.36
2019-02-15T03:12:38.188Z,101844.88
2019-02-15T03:13:12.561Z,101841.13
2019-02-15T03:13:47.259Z,101838.76
2019-02-15T03:14:21.902Z,101841.08
2019-02-15T03:14:56.476Z,101834.53
2019-02-15T03:15:30.804Z,101837.88
2019-02-15T03:16:05.728Z,101834.78
2019-02-15T03:16:40.086Z,101832.64
2019-02-15T03:17:14.490Z,101834.25
2019-02-15T03:17:49.102Z,101840.22
2019-02-15T03:18:23.508Z,101837.17
2019-02-15T03:18:58.079Z,101837.95
2019-02-15T03:19:32.426Z,101838.91
2019-02-15T03:20:06.798Z,101844.34
2019-02-15T03:20:41.132Z,101839.28
2019-02-15T03:21:19.069Z,101839.61
2019-02-15T03:21:51.905Z,101842.48
2019-02-15T03:22:26.241Z,101834.33
2019-02-15T03:23:00.587Z,101840.64
2019-02-15T03:23:35.216Z,101841.50
2019-02-15T03:24:09.552Z,101845.73
2019-02-15T03:24:43.941Z,101841.66
2019-02-15T03:25:18.742Z,101841.33
2019-02-15T03:25:53.396Z,101833.17
2019-02-15T03:26:28.005Z,101841.75
2019-02-15T03:27:02.342Z,101841.66
2019-02-15T03:27:36.687Z,101835.98
2019-02-15T03:28:11.398Z,101839.31
2019-02-15T03:28:45.778Z,101841.45
2019-02-15T03:29:20.250Z,101839.61
2019-02-15T03:29:55.184Z,101837.88
2019-02-15T03:30:30.077Z,101839.52
2019-02-15T03:31:04.715Z,101844.70
2019-02-15T03:31:39.074Z,101836.10
2019-02-15T03:32:13.733Z,101844.70
2019-02-15T03:32:48.186Z,101833.67
2019-02-15T03:33:22.924Z,101837.01
2019-02-15T03:33:57.578Z,101835.61
2019-02-15T03:34:32.192Z,101837.21
2019-02-15T03:35:06.841Z,101840.68
2019-02-15T03:35:54.036Z,101847.34
2019-02-15T03:36:40.152Z,101843.69
2019-02-15T03:37:33.539Z,101841.38
2019-02-15T03:38:17.910Z,101849.04
2019-02-15T03:38:56.916Z,101850.60
2019-02-15T03:39:43.350Z,101844.22
2019-02-15T03:40:27.276Z,101846.81
2019-02-15T03:41:03.688Z,101848.59
2019-02-15T03:41:38.048Z,101841.92
2019-02-15T03:42:14.020Z,101846.98
2019-02-15T03:42:48.381Z,101847.31
2019-02-15T03:43:22.772Z,101843.77
2019-02-15T03:43:57.306Z,101846.81
2019-02-15T03:44:31.929Z,101846.48
2019-02-15T03:45:06.307Z,101852.95
2019-02-15T03:45:40.638Z,101850.77
2019-02-15T03:46:15.028Z,101850.77
2019-02-15T03:46:49.687Z,101850.81
2019-02-15T03:47:26.236Z,101852.91
2019-02-15T03:48:01.159Z,101847.31
2019-02-15T03:48:35.736Z,101844.30
2019-02-15T03:49:10.362Z,101848.99
2019-02-15T03:49:44.746Z,101847.22
2019-02-15T03:50:19.108Z,101848.09
2019-02-15T03:50:53.475Z,101854.06
2019-02-15T03:51:27.828Z,101850.56
2019-02-15T03:52:02.517Z,101849.61
2019-02-15T03:52:37.100Z,101857.61
2019-02-15T03:53:11.550Z,101852.29
2019-02-15T03:53:46.242Z,101848.83
2019-02-15T03:54:20.623Z,101854.84
2019-02-15T03:54:54.981Z,101854.52
2019-02-15T03:55:29.728Z,101846.81
2019-02-15T03:56:04.546Z,101848.91
2019-02-15T03:56:38.882Z,101851.50
2019-02-15T03:57:13.265Z,101851.39
2019-02-15T03:57:48.442Z,101851.84
2019-02-15T03:58:22.816Z,101847.88
2019-02-15T03:58:57.270Z,101853.36
2019-02-15T03:59:31.658Z,101846.16
2019-02-15T04:00:07.004Z,101847.72
2019-02-15T04:00:41.546Z,101853.66
2019-02-15T04:01:16.545Z,101849.98
2019-02-15T04:01:50.899Z,101857.28
2019-02-15T04:02:25.506Z,101859.75
2019-02-15T04:03:00.309Z,101852.09
2019-02-15T04:03:35.012Z,101854.77
2019-02-15T04:04:09.636Z,101852.29
2019-02-15T04:04:44.007Z,101857.41
2019-02-15T04:05:18.368Z,101855.14
2019-02-15T04:05:52.841Z,101855.92
2019-02-15T04:06:27.170Z,101856.38
2019-02-15T04:07:01.876Z,101852.38
2019-02-15T04:07:36.190Z,101856.66
2019-02-15T04:08:10.787Z,101853.16
2019-02-15T04:08:45.226Z,101853.65
2019-02-15T04:09:19.618Z,101850.56
2019-02-15T04:09:53.979Z,101849.24
2019-02-15T04:10:28.315Z,101854.30
2019-02-15T04:11:02.663Z,101854.10
2019-02-15T04:11:37.260Z,101854.11
2019-02-15T04:12:11.609Z,101854.43
2019-02-15T04:12:46.061Z,101851.55
2019-02-15T04:13:20.453Z,101855.63
2019-02-15T04:13:54.845Z,101853.91
2019-02-15T04:14:32.795Z,101852.88
2019-02-15T04:15:05.871Z,101854.27
2019-02-15T04:15:40.544Z,101855.55
2019-02-15T04:16:15.221Z,101856.38
2019-02-15T04:16:49.865Z,101852.09
2019-02-15T04:17:24.226Z,101859.38
2019-02-15T04:17:59.116Z,101854.11
2019-02-15T04:18:33.485Z,101855.38
2019-02-15T04:19:08.196Z,101850.39
2019-02-15T04:19:42.586Z,101850.73
2019-02-15T04:20:17.355Z,101851.67
2019-02-15T04:20:52.015Z,101847.43
2019-02-15T04:21:26.363Z,101859.30
2019-02-15T04:22:00.782Z,101853.16
2019-02-15T04:22:35.119Z,101855.92
2019-02-15T04:23:09.495Z,101856.25
2019-02-15T04:23:43.868Z,101849.36
2019-02-15T04:24:18.349Z,101848.22
2019-02-15T04:24:52.781Z,101848.09
2019-02-15T04:25:27.391Z,101849.36
2019-02-15T04:26:01.989Z,101839.44
2019-02-15T04:26:36.318Z,101846.15
2019-02-15T04:27:10.672Z,101848.91
2019-02-15T04:27:45.092Z,101847.64
2019-02-15T04:28:19.871Z,101843.77
2019-02-15T04:28:54.244Z,101843.31
2019-02-15T04:29:28.588Z,101846.56
2019-02-15T04:30:02.934Z,101852.42
2019-02-15T04:30:37.277Z,101850.03
2019-02-15T04:31:11.657Z,101845.34
2019-02-15T04:31:46.111Z,101850.77
2019-02-15T04:32:20.892Z,101846.81
2019-02-15T04:32:55.502Z,101854.02
2019-02-15T04:33:30.102Z,101849.05
2019-02-15T04:34:04.742Z,101849.33
2019-02-15T04:34:39.345Z,101847.55
2019-02-15T04:35:13.703Z,101847.50
2019-02-15T04:35:48.078Z,101844.95
2019-02-15T04:36:22.739Z,101849.23
2019-02-15T04:36:57.329Z,101852.16
2019-02-15T04:37:31.941Z,101849.99
2019-02-15T04:38:06.366Z,101849.74
2019-02-15T04:38:40.970Z,101850.94
2019-02-15T04:39:15.384Z,101847.19
2019-02-15T04:39:50.383Z,101849.04
2019-02-15T04:40:24.752Z,101852.17
2019-02-15T04:40:59.099Z,101849.41
2019-02-15T04:41:33.549Z,101848.59
2019-02-15T04:42:08.160Z,101849.00
2019-02-15T04:42:42.529Z,101850.86
2019-02-15T04:43:17.216Z,101853.49
2019-02-15T04:43:51.867Z,101846.66
2019-02-15T04:44:26.775Z,101848.67
2019-02-15T04:45:01.103Z,101848.17
2019-02-15T04:45:35.713Z,101843.81
2019-02-15T04:46:10.061Z,101845.62
2019-02-15T04:46:44.410Z,101835.36
2019-02-15T04:47:18.787Z,101841.13
2019-02-15T04:47:53.137Z,101837.58
2019-02-15T04:48:27.489Z,101842.93
2019-02-15T04:49:01.861Z,101847.05
2019-02-15T04:49:36.613Z,101838.66
2019-02-15T04:50:10.970Z,101841.58
2019-02-15T04:50:45.902Z,101839.48
2019-02-15T04:51:20.524Z,101836.97
2019-02-15T04:51:55.254Z,101838.70
2019-02-15T04:52:29.959Z,101845.78
2019-02-15T04:53:04.295Z,101846.52
2019-02-15T04:53:38.876Z,101849.12
2019-02-15T04:54:13.603Z,101846.03
2019-02-15T04:54:48.222Z,101845.82
2019-02-15T04:55:22.845Z,101850.77
2019-02-15T04:55:57.450Z,101846.81
2019-02-15T04:56:32.112Z,101853.16
2019-02-15T04:57:06.733Z,101850.52
2019-02-15T04:57:41.335Z,101849.17
2019-02-15T04:58:15.724Z,101847.93
2019-02-15T04:58:50.114Z,101853.78
2019-02-15T04:59:24.750Z,101844.20
2019-02-15T04:59:59.083Z,101843.08
2019-02-15T05:00:33.684Z,101846.77
2019-02-15T05:01:08.122Z,101848.04
2019-02-15T05:01:42.479Z,101843.02
2019-02-15T05:02:16.879Z,101853.87
2019-02-15T05:02:51.412Z,101845.80
2019-02-15T05:03:26.137Z,101847.97
2019-02-15T05:04:00.764Z,101847.14
2019-02-15T05:04:35.152Z,101850.27
2019-02-15T05:05:09.464Z,101848.43
2019-02-15T05:05:43.839Z,101855.94
2019-02-15T05:06:18.558Z,101849.55
2019-02-15T05:06:52.990Z,101848.57
2019-02-15T05:07:27.591Z,101844.24
2019-02-15T05:08:02.193Z,101851.23
2019-02-15T05:08:36.788Z,101852.52
2019-02-15T05:09:11.114Z,101844.20
2019-02-15T05:09:45.618Z,101845.30
2019-02-15T05:10:19.986Z,101848.42
2019-02-15T05:10:54.331Z,101845.45
2019-02-15T05:11:28.682Z,101841.88
2019-02-15T05:12:03.364Z,101841.47
2019-02-15T05:12:37.725Z,101839.66
2019-02-15T05:13:12.374Z,101847.74
2019-02-15T05:13:46.780Z,101845.15
2019-02-15T05:14:21.226Z,101841.08
2019-02-15T05:14:55.944Z,101849.91
2019-02-15T05:15:30.294Z,101855.02
2019-02-15T05:16:04.621Z,101845.91
2019-02-15T05:16:39.213Z,101854.64
2019-02-15T05:17:13.589Z,101858.92
2019-02-15T05:17:47.985Z,101846.31
2019-02-15T05:18:22.745Z,101850.22
2019-02-15T05:18:57.448Z,101846.56
2019-02-15T05:19:32.344Z,101855.51
2019-02-15T05:20:07.098Z,101852.50
2019-02-15T05:20:41.745Z,101853.12
2019-02-15T05:21:16.140Z,101851.34
2019-02-15T05:21:50.848Z,101859.02
2019-02-15T05:22:25.198Z,101853.12
2019-02-15T05:22:59.799Z,101848.95
2019-02-15T05:23:34.403Z,101855.30
2019-02-15T05:24:08.769Z,101845.79
2019-02-15T05:24:43.180Z,101851.72
2019-02-15T05:25:17.810Z,101854.61
2019-02-15T05:25:52.207Z,101851.59
2019-02-15T05:26:26.579Z,101847.27
2019-02-15T05:27:01.238Z,101854.07
2019-02-15T05:27:35.887Z,101848.42
2019-02-15T05:28:10.228Z,101847.27
2019-02-15T05:28:44.665Z,101854.44
2019-02-15T05:29:19.024Z,101854.56
2019-02-15T05:29:53.716Z,101849.12
2019-02-15T05:30:28.059Z,101852.54
2019-02-15T05:31:03.052Z,101854.80
2019-02-15T05:31:37.384Z,101855.38
2019-02-15T05:32:11.724Z,101849.70
2019-02-15T05:32:46.261Z,101854.30
2019-02-15T05:33:20.777Z,101852.48
2019-02-15T05:33:55.244Z,101854.80
2019-02-15T05:34:29.721Z,101852.38
2019-02-15T05:35:04.353Z,101855.58
2019-02-15T05:35:39.284Z,101850.75
2019-02-15T05:36:13.647Z,101845.23
2019-02-15T05:36:48.395Z,101847.55
2019-02-15T05:37:23.062Z,101851.22
2019-02-15T05:37:57.412Z,101854.10
2019-02-15T05:38:31.755Z,101855.22
2019-02-15T05:39:08.616Z,101849.94
2019-02-15T05:39:43.003Z,101848.25
2019-02-15T05:40:17.371Z,101848.20
2019-02-15T05:40:52.060Z,101855.30
2019-02-15T05:41:27.050Z,101856.21
2019-02-15T05:42:01.384Z,101853.66
2019-02-15T05:42:35.999Z,101850.02
2019-02-15T05:43:10.363Z,101848.66
2019-02-15T05:43:44.720Z,101857.93
2019-02-15T05:44:19.117Z,101850.73
2019-02-15T05:45:03.020Z,101854.39
2019-02-15T05:45:29.569Z,101858.11
2019-02-15T05:46:04.176Z,101849.41
2019-02-15T05:46:38.784Z,101854.52
2019-02-15T05:47:13.175Z,101847.10
2019-02-15T05:47:47.922Z,101847.47
2019-02-15T05:48:22.276Z,101851.92
2019-02-15T05:48:56.617Z,101849.73
2019-02-15T05:49:31.021Z,101846.27
2019-02-15T05:50:05.441Z,101847.88
2019-02-15T05:50:40.023Z,101849.94
2019-02-15T05:51:14.415Z,101848.66
2019-02-15T05:51:48.823Z,101855.09
2019-02-15T05:52:23.464Z,101851.95
2019-02-15T05:52:58.672Z,101855.77
2019-02-15T05:53:33.259Z,101848.83
2019-02-15T05:54:07.592Z,101853.02
2019-02-15T05:54:42.595Z,101860.19
2019-02-15T05:55:17.018Z,101852.03
2019-02-15T05:55:51.714Z,101845.56
2019-02-15T05:56:26.503Z,101857.59
2019-02-15T05:57:01.402Z,101853.67
2019-02-15T05:57:35.789Z,101855.36
2019-02-15T05:58:10.132Z,101846.93
2019-02-15T05:58:44.769Z,101854.17
2019-02-15T05:59:19.444Z,101853.67
2019-02-15T05:59:54.106Z,101853.30
2019-02-15T06:00:36.724Z,101854.54
2019-02-15T06:01:05.485Z,101852.25
2019-02-15T06:01:39.818Z,101856.36
2019-02-15T06:02:14.337Z,101852.03
2019-02-15T06:02:49.371Z,101853.31
2019-02-15T06:03:23.757Z,101854.95
2019-02-15T06:03:58.092Z,101855.33
2019-02-15T06:04:32.892Z,101855.27
2019-02-15T06:05:07.714Z,101856.14
2019-02-15T06:05:42.055Z,101857.88
2019-02-15T06:06:16.440Z,101858.19
2019-02-15T06:06:50.816Z,101859.19
2019-02-15T06:07:25.432Z,101851.03
2019-02-15T06:08:00.674Z,101857.19
2019-02-15T06:08:35.601Z,101853.30
2019-02-15T06:09:10.226Z,101863.89
2019-02-15T06:09:44.996Z,101853.55
2019-02-15T06:10:19.363Z,101860.64
2019-02-15T06:10:53.794Z,101862.00
2019-02-15T06:11:28.528Z,101860.73
2019-02-15T06:12:03.132Z,101864.02
2019-02-15T06:12:37.459Z,101862.16
2019-02-15T06:13:11.829Z,101858.42
2019-02-15T06:13:46.727Z,101859.93
2019-02-15T06:14:21.129Z,101864.71
2019-02-15T06:14:55.641Z,101861.88
2019-02-15T06:15:30.029Z,101862.24
2019-02-15T06:16:04.356Z,101865.91
2019-02-15T06:16:38.983Z,101868.05
2019-02-15T06:17:13.476Z,101869.19
2019-02-15T06:17:48.179Z,101870.78
2019-02-15T06:18:22.808Z,101870.82
2019-02-15T06:18:57.375Z,101863.63
2019-02-15T06:19:32.058Z,101867.45
2019-02-15T06:20:06.857Z,101869.23
2019-02-15T06:20:41.452Z,101868.55
2019-02-15T06:21:15.870Z,101861.07
2019-02-15T06:21:50.217Z,101866.36
2019-02-15T06:22:24.659Z,101868.77
2019-02-15T06:22:59.570Z,101866.59
2019-02-15T06:23:34.479Z,101867.85
2019-02-15T06:24:08.815Z,101867.98
2019-02-15T06:24:43.167Z,101873.73
2019-02-15T06:25:17.618Z,101872.00
2019-02-15T06:25:52.059Z,101873.15
2019-02-15T06:26:26.397Z,101870.01
2019-02-15T06:27:00.723Z,101870.42
2019-02-15T06:27:35.064Z,101870.95
2019-02-15T06:28:10.535Z,101871.33
2019-02-15T06:28:45.076Z,101869.14
2019-02-15T06:29:19.652Z,101871.24
2019-02-15T06:29:54.360Z,101872.38
2019-02-15T06:30:28.719Z,101873.70
2019-02-15T06:31:03.042Z,101867.22
2019-02-15T06:31:37.629Z,101871.52
2019-02-15T06:32:11.977Z,101871.05
2019-02-15T06:32:46.400Z,101874.02
2019-02-15T06:33:20.800Z,101870.92
2019-02-15T06:33:55.134Z,101872.52
2019-02-15T06:34:29.753Z,101872.11
2019-02-15T06:35:04.125Z,101871.23
2019-02-15T06:35:38.741Z,101877.25
2019-02-15T06:36:13.143Z,101880.63
2019-02-15T06:36:48.077Z,101872.92
2019-02-15T06:37:22.761Z,101871.10
2019-02-15T06:37:57.092Z,101875.80
2019-02-15T06:38:34.773Z,101875.39
2019-02-15T06:39:08.985Z,101880.45
2019-02-15T06:39:43.363Z,101877.80
2019-02-15T06:40:17.765Z,101868.41
2019-02-15T06:40:52.402Z,101875.25
2019-02-15T06:41:27.006Z,101878.25
2019-02-15T06:42:01.691Z,101880.35
2019-02-15T06:42:36.039Z,101870.87
2019-02-15T06:43:10.640Z,101870.14
2019-02-15T06:43:45.424Z,101883.45
2019-02-15T06:44:20.148Z,101875.06
2019-02-15T06:44:54.498Z,101873.97
2019-02-15T06:45:28.889Z,101879.44
2019-02-15T06:46:03.221Z,101874.16
2019-02-15T06:46:37.835Z,101876.20
2019-02-15T06:47:12.206Z,101877.89
2019-02-15T06:47:46.602Z,101875.74
2019-02-15T06:48:21.368Z,101875.33
2019-02-15T06:48:55.998Z,101875.66
2019-02-15T06:49:30.331Z,101877.43
2019-02-15T06:50:04.877Z,101875.56
2019-02-15T06:50:39.219Z,101871.46
2019-02-15T06:51:13.599Z,101875.39
2019-02-15T06:51:48.135Z,101872.42
2019-02-15T06:52:22.502Z,101875.84
2019-02-15T06:52:56.902Z,101876.43
2019-02-15T06:53:31.519Z,101879.44
2019-02-15T06:54:06.147Z,101876.34